Lyme Center, New Hampshire
Current Conditions -  °F | °C
As of 10:28 AM on Monday 24 Nov 2014 (Local Time) from KLEB Reporting Station
Light Rain Light Rain  
Wind Chill: 51°   Ceiling: 1000
Heat Index: 51°   Visibility: 6mi
Dew Point: 50°   Wind: 0mph
Humidity: 96%   Direction: NA
Pressure: 29.61"   Gusts: NA
Location:  43.8°N, 72.12°W
Report Text: KLEB 241528Z 00000KT 6SM -RA BR FEW001 OVC010 11/10 A2961 RMK AO2 RAE13B19 P0001 T01060100
Loading
Personal Weather Stations






























Interactive Weather Map New forecast layout! Learn more

10-Day Weather Forecast

Advertisements
Track Severe Weather on mobile